createdAt,value
2023-03-05T00:01:30.627Z,96061.34
2023-03-05T00:03:58.941Z,96070.94
2023-03-05T00:06:28.974Z,96060.53
2023-03-05T00:08:58.621Z,96051.81
2023-03-05T00:11:29.709Z,96070.81
2023-03-05T00:14:00.050Z,96070.81
2023-03-05T00:16:29.908Z,96067.41
2023-03-05T00:18:59.676Z,96071.81
2023-03-05T00:21:29.341Z,96071.03
2023-03-05T00:24:01.016Z,96078.53
2023-03-05T00:26:30.888Z,96076.94
2023-03-05T00:29:00.237Z,96073.25
2023-03-05T00:31:31.297Z,96078.91
2023-03-05T00:34:01.674Z,96075.22
2023-03-05T00:36:30.397Z,96077.72
2023-03-05T00:38:59.059Z,96076.63
2023-03-05T00:41:27.407Z,96067.66
2023-03-05T00:43:55.409Z,96069.59
2023-03-05T00:46:27.556Z,96075.81
2023-03-05T00:48:56.072Z,96074.63
2023-03-05T00:51:24.545Z,96077.69
2023-03-05T00:53:52.609Z,96067.31
2023-03-05T00:56:20.635Z,96073.53
2023-03-05T00:58:48.829Z,96065.16
2023-03-05T01:01:17.209Z,96063.03
2023-03-05T01:03:46.754Z,96063.50
2023-03-05T01:06:16.606Z,96070.50
2023-03-05T01:08:45.653Z,96065.09
2023-03-05T01:11:13.717Z,96062.50
2023-03-05T01:13:42.323Z,96057.84
2023-03-05T01:16:10.585Z,96053.13
2023-03-05T01:18:39.382Z,96048.56
2023-03-05T01:21:09.241Z,96046.97
2023-03-05T01:23:37.580Z,96048.25
2023-03-05T01:26:06.335Z,96047.13
2023-03-05T01:28:34.307Z,96038.78
2023-03-05T01:31:02.418Z,96045.78
2023-03-05T01:33:30.411Z,96046.25
2023-03-05T01:35:58.470Z,96039.91
2023-03-05T01:38:27.932Z,96034.94
2023-03-05T01:40:55.952Z,96032.25
2023-03-05T01:43:27.018Z,96029.66
2023-03-05T01:46:28.118Z,96026.59
2023-03-05T01:49:02.480Z,96025.13
2023-03-05T01:51:35.033Z,96017.34
2023-03-05T01:54:08.313Z,96012.59
2023-03-05T01:56:37.173Z,96011.97
2023-03-05T01:59:05.497Z,96010.38
2023-03-05T02:01:38.050Z,96007.78
2023-03-05T02:04:07.738Z,96012.66
2023-03-05T02:06:36.206Z,96005.34
2023-03-05T02:09:05.588Z,95995.66
2023-03-05T02:11:34.927Z,96011.91
2023-03-05T02:14:03.420Z,95994.44
2023-03-05T02:16:36.959Z,96003.47
2023-03-05T02:19:06.408Z,95999.63
2023-03-05T02:21:41.197Z,95999.94
2023-03-05T02:24:12.939Z,96005.94
2023-03-05T02:26:41.100Z,95992.22
2023-03-05T02:29:11.604Z,96007.72
2023-03-05T02:31:40.176Z,95997.28
2023-03-05T02:34:08.501Z,95998.91
2023-03-05T02:36:36.563Z,95994.06
2023-03-05T02:39:06.016Z,95989.44
2023-03-05T02:41:34.134Z,95980.09
2023-03-05T02:44:02.472Z,95987.44
2023-03-05T02:46:30.445Z,95982.81
2023-03-05T02:48:58.392Z,95984.72
2023-03-05T02:51:26.378Z,95984.28
2023-03-05T02:53:54.510Z,95978.44
2023-03-05T02:56:23.912Z,95973.72
2023-03-05T02:58:52.026Z,95977.75
2023-03-05T03:01:20.012Z,95976.63
2023-03-05T03:03:48.021Z,95971.09
2023-03-05T03:06:15.982Z,95961.53
2023-03-05T03:08:43.911Z,95963.56
2023-03-05T03:11:13.393Z,95965.81
2023-03-05T03:13:43.234Z,95969.97
2023-03-05T03:16:14.026Z,95967.16
2023-03-05T03:18:42.349Z,95968.53
2023-03-05T03:21:10.503Z,95959.50
2023-03-05T03:23:38.533Z,95965.38
2023-03-05T03:26:07.270Z,95959.03
2023-03-05T03:28:35.310Z,95956.91
2023-03-05T03:31:04.952Z,95963.31
2023-03-05T03:33:33.146Z,95959.59
2023-03-05T03:36:01.242Z,95964.22
2023-03-05T03:38:29.219Z,95963.75
2023-03-05T03:40:57.170Z,95965.00
2023-03-05T03:43:25.238Z,95961.84
2023-03-05T03:45:53.315Z,95965.44
2023-03-05T03:48:22.686Z,95965.78
2023-03-05T03:50:50.623Z,95968.63
2023-03-05T03:53:18.609Z,95963.09
2023-03-05T03:55:46.702Z,95964.47
2023-03-05T03:58:15.063Z,95955.13
2023-03-05T04:00:43.392Z,95965.59
2023-03-05T04:03:11.355Z,95968.06
2023-03-05T04:05:40.736Z,95962.97
2023-03-05T04:08:12.127Z,95952.63
2023-03-05T04:10:40.697Z,95951.97
2023-03-05T04:13:08.945Z,95956.13
2023-03-05T04:15:37.070Z,95946.22
2023-03-05T04:18:05.273Z,95941.50
2023-03-05T04:20:33.274Z,95946.34
2023-03-05T04:23:02.668Z,95943.41
2023-03-05T04:25:30.627Z,95955.78
2023-03-05T04:27:58.585Z,95958.94
2023-03-05T04:30:26.589Z,95963.78
2023-03-05T04:32:54.594Z,95967.50
2023-03-05T04:35:22.631Z,95958.28
2023-03-05T04:37:50.982Z,95950.72
2023-03-05T04:40:20.779Z,95952.97
2023-03-05T04:42:48.971Z,95954.50
2023-03-05T04:45:17.348Z,95959.88
2023-03-05T04:47:45.533Z,95957.03
2023-03-05T04:50:14.241Z,95955.88
2023-03-05T04:52:43.758Z,95958.47
2023-03-05T04:55:13.542Z,95951.72
2023-03-05T04:57:43.482Z,95947.00
2023-03-05T05:00:15.317Z,95951.63
2023-03-05T05:02:44.359Z,95951.53
2023-03-05T05:05:14.540Z,95952.94
2023-03-05T05:07:42.859Z,95959.94
2023-03-05T05:10:12.884Z,95946.66
2023-03-05T05:12:42.643Z,95951.28
2023-03-05T05:15:12.714Z,95945.44
2023-03-05T05:17:41.419Z,95950.72
2023-03-05T05:20:12.039Z,95941.94
2023-03-05T05:22:40.042Z,95943.53
2023-03-05T05:25:08.412Z,95939.94
2023-03-05T05:27:36.404Z,95948.25
2023-03-05T05:30:06.574Z,95945.00
2023-03-05T05:32:35.077Z,95950.03
2023-03-05T05:35:03.918Z,95939.22
2023-03-05T05:37:31.975Z,95947.22
2023-03-05T05:40:00.088Z,95946.88
2023-03-05T05:42:29.523Z,95943.41
2023-03-05T05:44:57.548Z,95949.84
2023-03-05T05:47:27.042Z,95944.66
2023-03-05T05:49:54.976Z,95950.41
2023-03-05T05:52:23.375Z,95941.06
2023-03-05T05:54:51.362Z,95939.94
2023-03-05T05:57:19.392Z,95935.19
2023-03-05T05:59:47.402Z,95940.59
2023-03-05T06:02:15.457Z,95936.56
2023-03-05T06:04:44.973Z,95933.16
2023-03-05T06:07:12.958Z,95935.31
2023-03-05T06:09:40.975Z,95927.09
2023-03-05T06:12:09.407Z,95938.59
2023-03-05T06:14:37.365Z,95936.53
2023-03-05T06:17:05.387Z,95933.84
2023-03-05T06:19:33.538Z,95933.63
2023-03-05T06:22:02.908Z,95928.78
2023-03-05T06:24:30.871Z,95928.53
2023-03-05T06:26:58.847Z,95929.31
2023-03-05T06:29:26.881Z,95928.63
2023-03-05T06:31:54.924Z,95933.91
2023-03-05T06:34:22.886Z,95928.03
2023-03-05T06:36:51.134Z,95938.47
2023-03-05T06:39:20.487Z,95928.56
2023-03-05T06:41:52.150Z,95928.13
2023-03-05T06:44:20.397Z,95925.66
2023-03-05T06:46:48.346Z,95931.09
2023-03-05T06:49:16.330Z,95931.47
2023-03-05T06:51:44.392Z,95932.72
2023-03-05T06:54:15.431Z,95929.78
2023-03-05T06:56:47.094Z,95925.72
2023-03-05T06:59:16.416Z,95920.66
2023-03-05T07:01:44.605Z,95925.75
2023-03-05T07:04:13.298Z,95927.09
2023-03-05T07:06:42.734Z,95928.22
2023-03-05T07:09:14.429Z,95921.47
2023-03-05T07:11:42.520Z,95920.00
2023-03-05T07:14:11.880Z,95932.03
2023-03-05T07:16:39.924Z,95925.84
2023-03-05T07:19:10.916Z,95924.94
2023-03-05T07:21:40.059Z,95928.22
2023-03-05T07:24:08.946Z,95928.88
2023-03-05T07:26:37.258Z,95927.50
2023-03-05T07:29:05.542Z,95930.22
2023-03-05T07:31:35.065Z,95925.81
2023-03-05T07:34:04.512Z,95928.16
2023-03-05T07:36:35.065Z,95925.19
2023-03-05T07:39:04.836Z,95926.50
2023-03-05T07:41:33.137Z,95924.34
2023-03-05T07:44:01.448Z,95922.69
2023-03-05T07:46:32.006Z,95919.66
2023-03-05T07:49:01.502Z,95915.56
2023-03-05T07:51:29.815Z,95920.28
2023-03-05T07:53:59.535Z,95921.19
2023-03-05T07:56:31.862Z,95918.53
2023-03-05T07:59:00.220Z,95915.31
2023-03-05T08:01:28.285Z,95917.13
2023-03-05T08:03:56.293Z,95919.59
2023-03-05T08:06:25.755Z,95920.91
2023-03-05T08:08:53.737Z,95910.81
2023-03-05T08:11:21.734Z,95915.00
2023-03-05T08:13:49.834Z,95910.13
2023-03-05T08:16:20.350Z,95904.16
2023-03-05T08:18:49.319Z,95905.91
2023-03-05T08:21:19.230Z,95890.84
2023-03-05T08:23:49.118Z,95885.09
2023-03-05T08:26:21.258Z,95890.28
2023-03-05T08:28:50.043Z,95887.28
2023-03-05T08:31:19.527Z,95883.16
2023-03-05T08:33:47.502Z,95880.16
2023-03-05T08:36:15.549Z,95867.44
2023-03-05T08:38:44.666Z,95861.44
2023-03-05T08:41:14.610Z,95869.16
2023-03-05T08:43:43.431Z,95862.44
2023-03-05T08:46:12.735Z,95863.97
2023-03-05T08:48:41.338Z,95856.44
2023-03-05T08:51:11.668Z,95856.94
2023-03-05T08:53:40.165Z,95856.16
2023-03-05T08:56:09.436Z,95857.31
2023-03-05T08:58:38.845Z,95849.63
2023-03-05T09:01:07.856Z,95838.84
2023-03-05T09:03:36.047Z,95834.16
2023-03-05T09:06:07.038Z,95833.31
2023-03-05T09:08:35.631Z,95830.28
2023-03-05T09:11:04.326Z,95825.75
2023-03-05T09:13:32.351Z,95827.72
2023-03-05T09:16:03.565Z,95811.13
2023-03-05T09:18:32.325Z,95808.13
2023-03-05T09:21:04.902Z,95796.16
2023-03-05T09:23:32.899Z,95799.28
2023-03-05T09:26:00.858Z,95789.66
2023-03-05T09:28:29.027Z,95790.16
2023-03-05T09:30:57.015Z,95795.59
2023-03-05T09:33:26.339Z,95780.72
2023-03-05T09:35:54.423Z,95778.88
2023-03-05T09:38:22.434Z,95786.09
2023-03-05T09:40:56.905Z,95785.84
2023-03-05T09:43:35.756Z,95784.72
2023-03-05T09:46:17.186Z,95776.59
2023-03-05T09:48:53.105Z,95763.94
2023-03-05T09:51:26.935Z,95768.41
2023-03-05T09:54:04.166Z,95765.88
2023-03-05T09:56:36.149Z,95773.81
2023-03-05T09:59:15.553Z,95757.72
2023-03-05T10:01:45.055Z,95752.78
2023-03-05T10:04:18.710Z,95743.91
2023-03-05T10:06:52.002Z,95744.31
2023-03-05T10:09:32.920Z,95737.78
2023-03-05T10:12:04.473Z,95734.47
2023-03-05T10:14:35.246Z,95733.47
2023-03-05T10:17:40.218Z,95719.31
2023-03-05T10:20:27.024Z,95717.94
2023-03-05T10:23:14.056Z,95709.63
2023-03-05T10:26:03.907Z,95708.31
2023-03-05T10:28:40.972Z,95709.41
2023-03-05T10:31:35.368Z,95701.16
2023-03-05T10:34:21.280Z,95699.72
2023-03-05T10:37:03.848Z,95692.63
2023-03-05T10:39:51.372Z,95687.72
2023-03-05T10:42:31.103Z,95688.72
2023-03-05T10:45:00.693Z,95679.00
2023-03-05T10:47:32.899Z,95673.25
2023-03-05T10:50:01.112Z,95668.22
2023-03-05T10:52:36.366Z,95654.97
2023-03-05T10:55:13.405Z,95654.00
2023-03-05T10:57:41.504Z,95648.88
2023-03-05T11:00:19.570Z,95631.09
2023-03-05T11:02:59.600Z,95629.41
2023-03-05T11:05:42.117Z,95614.63
2023-03-05T11:08:31.161Z,95619.41
2023-03-05T11:11:15.482Z,95612.41
2023-03-05T11:13:56.007Z,95605.84
2023-03-05T11:16:27.087Z,95597.25
2023-03-05T11:19:18.685Z,95584.91
2023-03-05T11:21:47.966Z,95581.97
2023-03-05T11:24:19.867Z,95577.03
2023-03-05T11:26:50.642Z,95573.00
2023-03-05T11:29:22.903Z,95560.59
2023-03-05T11:31:51.542Z,95558.88
2023-03-05T11:34:35.190Z,95553.44
2023-03-05T11:37:08.065Z,95545.06
2023-03-05T11:39:40.249Z,95538.78
2023-03-05T11:42:14.189Z,95541.19
2023-03-05T11:44:48.234Z,95523.03
2023-03-05T11:47:27.434Z,95524.06
2023-03-05T11:50:02.315Z,95528.84
2023-03-05T11:52:35.151Z,95519.38
2023-03-05T11:55:08.739Z,95510.16
2023-03-05T11:57:44.871Z,95522.06
2023-03-05T12:00:17.537Z,95506.72
2023-03-05T12:02:49.084Z,95500.06
2023-03-05T12:05:18.247Z,95507.00
2023-03-05T12:07:50.049Z,95499.88
2023-03-05T12:10:22.205Z,95498.78
2023-03-05T12:12:55.481Z,95498.06
2023-03-05T12:15:57.479Z,95487.00
2023-03-05T12:18:37.481Z,95485.31
2023-03-05T12:21:09.143Z,95485.88
2023-03-05T12:23:48.444Z,95467.75
2023-03-05T12:26:17.968Z,95465.63
2023-03-05T12:28:59.553Z,95457.88
2023-03-05T12:31:35.563Z,95455.13
2023-03-05T12:34:33.195Z,95456.22
2023-03-05T12:37:01.280Z,95441.03
2023-03-05T12:39:58.656Z,95439.16
2023-03-05T12:42:48.773Z,95431.41
2023-03-05T12:45:35.350Z,95425.34
2023-03-05T12:48:40.269Z,95421.31
2023-03-05T12:51:13.802Z,95421.31
2023-03-05T12:53:41.926Z,95406.28
2023-03-05T12:56:20.941Z,95408.75
2023-03-05T12:58:54.019Z,95399.75
2023-03-05T13:01:39.258Z,95399.75
2023-03-05T13:04:11.136Z,95397.72
2023-03-05T13:06:40.459Z,95396.97
2023-03-05T13:09:16.883Z,95379.44
2023-03-05T13:11:48.266Z,95385.47
2023-03-05T13:14:40.723Z,95387.19
2023-03-05T13:17:35.793Z,95388.88
2023-03-05T13:20:24.704Z,95384.69
2023-03-05T13:23:04.792Z,95376.78
2023-03-05T13:25:32.784Z,95378.31
2023-03-05T13:28:04.336Z,95376.28
2023-03-05T13:30:34.854Z,95373.66
2023-03-05T13:33:05.420Z,95362.31
2023-03-05T13:35:34.732Z,95357.97
2023-03-05T13:38:03.333Z,95355.94
2023-03-05T13:40:33.335Z,95358.84
2023-03-05T13:43:12.162Z,95344.75
2023-03-05T13:45:44.110Z,95352.78
2023-03-05T13:48:20.649Z,95338.38
2023-03-05T13:50:55.853Z,95342.38
2023-03-05T13:53:26.240Z,95337.97
2023-03-05T13:55:55.907Z,95351.25
2023-03-05T13:58:48.743Z,95340.03
2023-03-05T14:01:27.126Z,95333.53
2023-03-05T14:03:58.011Z,95333.94
2023-03-05T14:06:29.217Z,95331.44
2023-03-05T14:09:04.577Z,95314.13
2023-03-05T14:11:32.643Z,95316.56
2023-03-05T14:14:07.895Z,95313.47
2023-03-05T14:16:37.350Z,95313.78
2023-03-05T14:19:07.349Z,95306.94
2023-03-05T14:21:48.215Z,95318.56
2023-03-05T14:24:22.848Z,95303.72
2023-03-05T14:26:53.699Z,95294.75
2023-03-05T14:29:24.547Z,95296.56
2023-03-05T14:31:57.506Z,95282.00
2023-03-05T14:34:32.225Z,95274.84
2023-03-05T14:37:03.696Z,95272.81
2023-03-05T14:39:41.297Z,95267.56
2023-03-05T14:42:35.975Z,95276.47
2023-03-05T14:45:14.394Z,95273.69
2023-03-05T14:47:44.073Z,95273.09
2023-03-05T14:50:16.805Z,95269.25
2023-03-05T14:52:45.573Z,95258.25
2023-03-05T14:55:16.769Z,95258.72
2023-03-05T14:57:45.128Z,95253.16
2023-03-05T15:00:17.700Z,95254.25
2023-03-05T15:02:47.148Z,95253.00
2023-03-05T15:05:15.415Z,95249.91
2023-03-05T15:07:44.547Z,95252.16
2023-03-05T15:10:15.214Z,95229.72
2023-03-05T15:12:44.320Z,95234.75
2023-03-05T15:15:14.227Z,95226.22
2023-03-05T15:17:44.271Z,95223.41
2023-03-05T15:20:17.339Z,95219.47
2023-03-05T15:22:45.341Z,95217.84
2023-03-05T15:25:13.779Z,95218.94
2023-03-05T15:27:41.964Z,95211.91
2023-03-05T15:30:22.219Z,95217.66
2023-03-05T15:32:50.819Z,95221.75
2023-03-05T15:35:20.685Z,95213.84
2023-03-05T15:37:48.818Z,95202.88
2023-03-05T15:40:17.245Z,95191.28
2023-03-05T15:42:45.544Z,95193.44
2023-03-05T15:45:13.604Z,95195.38
2023-03-05T15:47:41.732Z,95195.75
2023-03-05T15:50:12.132Z,95200.25
2023-03-05T15:52:41.648Z,95191.38
2023-03-05T15:55:11.118Z,95202.00
2023-03-05T15:57:43.723Z,95193.66
2023-03-05T16:00:13.120Z,95186.97
2023-03-05T16:02:41.270Z,95193.31
2023-03-05T16:05:10.560Z,95191.69
2023-03-05T16:07:43.309Z,95188.72
2023-03-05T16:10:17.599Z,95185.59
2023-03-05T16:12:48.600Z,95182.44
2023-03-05T16:15:19.649Z,95184.09
2023-03-05T16:17:51.980Z,95175.75
2023-03-05T16:20:20.847Z,95167.38
2023-03-05T16:22:50.634Z,95168.75
2023-03-05T16:25:19.121Z,95170.72
2023-03-05T16:27:47.135Z,95169.75
2023-03-05T16:30:16.563Z,95183.84
2023-03-05T16:32:44.922Z,95169.88
2023-03-05T16:35:13.336Z,95175.63
2023-03-05T16:37:42.109Z,95173.59
2023-03-05T16:40:15.221Z,95170.81
2023-03-05T16:42:43.545Z,95181.69
2023-03-05T16:45:13.110Z,95179.84
2023-03-05T16:47:41.981Z,95172.28
2023-03-05T16:50:11.631Z,95182.22
2023-03-05T16:52:39.795Z,95182.69
2023-03-05T16:55:08.615Z,95180.84
2023-03-05T16:57:39.538Z,95168.22
2023-03-05T17:00:09.278Z,95172.06
2023-03-05T17:02:37.310Z,95177.69
2023-03-05T17:05:05.993Z,95186.19
2023-03-05T17:07:34.014Z,95185.00
2023-03-05T17:10:02.045Z,95189.25
2023-03-05T17:12:30.174Z,95180.19
2023-03-05T17:14:59.692Z,95190.72
2023-03-05T17:17:27.730Z,95188.19
2023-03-05T17:19:55.753Z,95189.31
2023-03-05T17:22:23.773Z,95184.44
2023-03-05T17:24:51.837Z,95193.13
2023-03-05T17:27:22.724Z,95197.38
2023-03-05T17:29:50.693Z,95199.28
2023-03-05T17:32:20.161Z,95205.09
2023-03-05T17:34:48.329Z,95210.63
2023-03-05T17:37:19.208Z,95208.56
2023-03-05T17:39:47.326Z,95219.09
2023-03-05T17:42:15.896Z,95219.63
2023-03-05T17:44:43.927Z,95216.84
2023-03-05T17:47:11.935Z,95225.56
2023-03-05T17:49:41.692Z,95230.38
2023-03-05T17:52:09.732Z,95230.97
2023-03-05T17:54:37.874Z,95231.56
2023-03-05T17:57:06.045Z,95234.75
2023-03-05T17:59:34.081Z,95235.56
2023-03-05T18:02:02.318Z,95244.75
2023-03-05T18:04:30.323Z,95245.34
2023-03-05T18:06:59.739Z,95251.66
2023-03-05T18:09:27.816Z,95236.31
2023-03-05T18:11:55.855Z,95237.69
2023-03-05T18:14:24.024Z,95238.72
2023-03-05T18:16:52.106Z,95245.56
2023-03-05T18:19:20.720Z,95235.97
2023-03-05T18:21:50.829Z,95242.53
2023-03-05T18:24:20.243Z,95255.06
2023-03-05T18:26:48.214Z,95244.63
2023-03-05T18:29:18.651Z,95250.63
2023-03-05T18:31:46.831Z,95246.72
2023-03-05T18:34:14.917Z,95245.72
2023-03-05T18:36:42.978Z,95247.06
2023-03-05T18:39:12.810Z,95247.06
2023-03-05T18:41:43.133Z,95259.31
2023-03-05T18:44:11.396Z,95262.25
2023-03-05T18:46:39.476Z,95254.44
2023-03-05T18:49:09.405Z,95245.59
2023-03-05T18:51:37.967Z,95254.22
2023-03-05T18:54:06.051Z,95257.88
2023-03-05T18:56:34.096Z,95256.28
2023-03-05T18:59:03.548Z,95252.09
2023-03-05T19:01:31.880Z,95261.00
2023-03-05T19:04:00.214Z,95263.09
2023-03-05T19:06:28.300Z,95261.03
2023-03-05T19:08:59.531Z,95264.19
2023-03-05T19:11:27.640Z,95268.06
2023-03-05T19:13:57.026Z,95268.34
2023-03-05T19:16:29.389Z,95274.09
2023-03-05T19:19:04.026Z,95267.59
2023-03-05T19:21:32.695Z,95266.03
2023-03-05T19:24:00.853Z,95272.56
2023-03-05T19:26:28.978Z,95271.56
2023-03-05T19:28:57.012Z,95273.16
2023-03-05T19:31:26.500Z,95270.53
2023-03-05T19:33:55.579Z,95274.19
2023-03-05T19:36:23.689Z,95274.97
2023-03-05T19:38:51.810Z,95267.94
2023-03-05T19:41:21.838Z,95265.31
2023-03-05T19:43:50.642Z,95267.66
2023-03-05T19:46:18.870Z,95266.09
2023-03-05T19:48:48.458Z,95275.75
2023-03-05T19:51:19.231Z,95266.34
2023-03-05T19:53:48.126Z,95274.16
2023-03-05T19:56:17.781Z,95280.44
2023-03-05T19:58:47.671Z,95267.16
2023-03-05T20:01:17.410Z,95279.94
2023-03-05T20:03:46.623Z,95275.03
2023-03-05T20:06:16.369Z,95279.50
2023-03-05T20:08:44.598Z,95274.88
2023-03-05T20:11:13.607Z,95269.16
2023-03-05T20:13:42.010Z,95277.53
2023-03-05T20:16:17.066Z,95270.78
2023-03-05T20:18:46.176Z,95279.66
2023-03-05T20:21:21.655Z,95282.00
2023-03-05T20:23:50.150Z,95286.44
2023-03-05T20:26:18.273Z,95284.91
2023-03-05T20:28:46.809Z,95289.59
2023-03-05T20:31:15.039Z,95280.75
2023-03-05T20:33:43.097Z,95281.81
2023-03-05T20:36:11.461Z,95278.41
2023-03-05T20:38:40.983Z,95280.25
2023-03-05T20:41:11.397Z,95285.19
2023-03-05T20:43:44.747Z,95290.44
2023-03-05T20:46:16.720Z,95288.63
2023-03-05T20:48:45.809Z,95289.69
2023-03-05T20:51:16.056Z,95292.81
2023-03-05T20:53:45.723Z,95288.63
2023-03-05T20:56:14.388Z,95294.41
2023-03-05T20:58:42.498Z,95287.63
2023-03-05T21:01:10.616Z,95289.22
2023-03-05T21:03:38.921Z,95288.69
2023-03-05T21:06:07.815Z,95290.78
2023-03-05T21:08:35.987Z,95273.59
2023-03-05T21:11:08.962Z,95284.78
2023-03-05T21:13:37.384Z,95289.75
2023-03-05T21:16:08.549Z,95281.41
2023-03-05T21:18:37.202Z,95285.06
2023-03-05T21:21:05.447Z,95286.63
2023-03-05T21:23:33.752Z,95280.38
2023-03-05T21:26:04.151Z,95281.41
2023-03-05T21:28:33.735Z,95288.16
2023-03-05T21:31:08.360Z,95286.09
2023-03-05T21:33:36.638Z,95282.94
2023-03-05T21:36:05.202Z,95285.03
2023-03-05T21:38:34.237Z,95282.16
2023-03-05T21:41:03.299Z,95289.44
2023-03-05T21:43:33.107Z,95281.91
2023-03-05T21:46:03.176Z,95277.22
2023-03-05T21:48:31.961Z,95279.31
2023-03-05T21:51:00.513Z,95284.00
2023-03-05T21:53:28.625Z,95275.66
2023-03-05T21:56:05.264Z,95284.50
2023-03-05T21:58:36.145Z,95282.94
2023-03-05T22:01:04.475Z,95274.09
2023-03-05T22:03:32.654Z,95274.84
2023-03-05T22:06:01.075Z,95277.94
2023-03-05T22:08:30.227Z,95272.47
2023-03-05T22:10:58.276Z,95267.78
2023-03-05T22:13:26.419Z,95276.09
2023-03-05T22:15:57.276Z,95268.81
2023-03-05T22:18:27.190Z,95272.44
2023-03-05T22:20:56.320Z,95273.75
2023-03-05T22:23:27.323Z,95273.47
2023-03-05T22:25:58.926Z,95275.56
2023-03-05T22:28:28.154Z,95276.59
2023-03-05T22:30:57.926Z,95279.69
2023-03-05T22:33:27.034Z,95276.56
2023-03-05T22:35:55.282Z,95272.94
2023-03-05T22:38:23.561Z,95275.78
2023-03-05T22:40:52.315Z,95279.94
2023-03-05T22:43:20.821Z,95273.19
2023-03-05T22:45:48.994Z,95273.19
2023-03-05T22:48:18.439Z,95269.53
2023-03-05T22:50:46.474Z,95267.69
2023-03-05T22:53:14.548Z,95266.13
2023-03-05T22:55:43.410Z,95254.94
2023-03-05T22:58:11.394Z,95261.16
2023-03-05T23:00:39.455Z,95257.78
2023-03-05T23:03:07.553Z,95246.59
2023-03-05T23:05:39.367Z,95254.94
2023-03-05T23:08:07.568Z,95245.84
2023-03-05T23:10:35.715Z,95247.13
2023-03-05T23:13:03.968Z,95246.84
2023-03-05T23:15:35.501Z,95249.44
2023-03-05T23:18:04.482Z,95242.13
2023-03-05T23:20:35.170Z,95238.97
2023-03-05T23:23:05.338Z,95237.66
2023-03-05T23:25:36.575Z,95244.13
2023-03-05T23:28:05.291Z,95238.91
2023-03-05T23:30:34.713Z,95239.97
2023-03-05T23:33:06.555Z,95244.66
2023-03-05T23:35:36.808Z,95232.44
2023-03-05T23:38:07.801Z,95230.13
2023-03-05T23:40:38.365Z,95228.03
2023-03-05T23:43:06.619Z,95225.41
2023-03-05T23:45:34.904Z,95219.69
2023-03-05T23:48:02.976Z,95226.41
2023-03-05T23:50:33.111Z,95223.53
2023-03-05T23:53:02.357Z,95227.94
2023-03-05T23:55:34.304Z,95222.75
2023-03-05T23:58:02.598Z,95233.13
